Bergen, North Dakota
Current Conditions -  °F | °C
As of 5:54 AM on Monday 24 Nov 2014 (Local Time) from KMOT Reporting Station
Clear Clear  
Wind Chill: -12°   Ceiling: Unl
Heat Index:   Visibility: 10mi
Dew Point:   Wind: 13mph
Humidity: 80%   Direction: 300°WNW
Pressure: 29.82"   Gusts: NA
Location:  47.9335°N, 100.777°W
Report Text: KMOT 241154Z AUTO 30011KT 10SM CLR M15/M18 A2982 RMK AO2 SLP136 T11501178 11128 21150 53011
Loading
Personal Weather Stations






























Interactive Weather Map New forecast layout! Learn more

10-Day Weather Forecast

Advertisements
Track Severe Weather on mobile